Time;durP1;ratioP1;P1;durP2;ratioP2;P2;SDS_P1;SDS_P2;PMS_P1;PMS_P2;Temp;Humidity;BMP_temperature;BMP_pressure;BME280_temperature;BME280_humidity;BME280_pressure;Samples;Min_cycle;Max_cycle;Signal;HPM_P1;HPM_P2
2021/11/19 00:01:11;;;;;;;75.28;27.15;;;;;;;6.57;100.00;100264.50;5064100;28;20029;-67
2021/11/19 00:03:37;;;;;;;57.75;24.85;;;;;;;6.54;99.80;100272.28;5064279;28;20025;-67
2021/11/19 00:06:03;;;;;;;67.25;26.38;;;;;;;6.53;99.82;100265.28;5063961;28;20417;-67
2021/11/19 00:08:29;;;;;;;68.72;24.88;;;;;;;6.54;99.71;100264.44;5063988;28;20358;-67
2021/11/19 00:10:57;;;;;;;70.32;23.77;;;;;;;6.56;99.98;100267.97;5064047;28;20326;-67
2021/11/19 00:13:23;;;;;;;65.00;23.90;;;;;;;6.57;99.44;100270.63;5063995;28;20036;-67
2021/11/19 00:15:48;;;;;;;73.13;25.88;;;;;;;6.58;99.99;100274.09;5063653;28;20049;-67
2021/11/19 00:18:14;;;;;;;69.50;24.73;;;;;;;6.62;99.77;100273.34;5063759;28;20017;-67
2021/11/19 00:20:40;;;;;;;71.05;25.52;;;;;;;6.63;99.24;100264.63;5063781;28;20213;-67
2021/11/19 00:23:06;;;;;;;67.43;25.83;;;;;;;6.65;99.77;100262.97;5063642;28;20017;-67
2021/11/19 00:25:34;;;;;;;69.55;23.98;;;;;;;6.67;98.96;100268.22;5056973;28;20025;-67
2021/11/19 00:27:59;;;;;;;68.88;24.08;;;;;;;6.68;99.12;100266.50;5063482;28;20080;-67
2021/11/19 00:30:27;;;;;;;64.85;25.17;;;;;;;6.68;98.97;100265.63;5063416;28;20036;-67
2021/11/19 00:32:53;;;;;;;74.35;25.08;;;;;;;6.70;99.27;100273.53;5063663;28;20335;-67
2021/11/19 00:35:20;;;;;;;76.85;24.50;;;;;;;6.71;99.37;100270.03;5063420;28;20021;-67
2021/11/19 00:37:48;;;;;;;62.08;24.38;;;;;;;6.65;99.34;100261.19;5063731;28;20100;-67
2021/11/19 00:40:21;;;;;;;78.00;26.65;;;;;;;6.60;99.57;100267.19;5063504;28;20029;-67
2021/11/19 00:42:47;;;;;;;69.70;23.52;;;;;;;6.59;99.55;100262.81;5063412;28;20029;-67
2021/11/19 00:45:13;;;;;;;68.88;24.02;;;;;;;6.64;99.44;100269.00;5063574;28;20370;-67
2021/11/19 00:47:39;;;;;;;77.05;25.42;;;;;;;6.58;99.52;100263.63;5063444;28;20024;-67
2021/11/19 00:50:07;;;;;;;65.93;27.00;;;;;;;6.57;99.66;100269.75;5063263;28;20020;-67
2021/11/19 00:52:32;;;;;;;63.17;22.42;;;;;;;6.62;99.77;100270.75;5063230;28;20025;-67
2021/11/19 00:54:58;;;;;;;66.55;22.30;;;;;;;6.62;99.92;100268.13;5063456;28;20016;-67
2021/11/19 00:57:24;;;;;;;86.03;25.08;;;;;;;6.61;99.65;100267.22;5063294;28;20347;-67
2021/11/19 00:59:49;;;;;;;73.15;25.13;;;;;;;6.62;99.74;100265.50;5063078;28;20027;-67
2021/11/19 01:02:21;;;;;;;70.10;24.17;;;;;;;6.69;99.38;100272.63;5063247;28;20021;-67
2021/11/19 01:04:47;;;;;;;57.67;23.02;;;;;;;6.71;99.14;100272.66;5063089;28;20063;-67
2021/11/19 01:07:14;;;;;;;64.80;22.73;;;;;;;6.70;99.07;100269.16;5063178;28;20063;-67
2021/11/19 01:09:44;;;;;;;74.10;24.50;;;;;;;6.70;99.09;100277.00;5054623;28;20088;-67
2021/11/19 01:12:12;;;;;;;69.78;24.38;;;;;;;6.72;99.27;100275.31;5063262;28;20122;-67
2021/11/19 01:14:53;;;;;;;58.42;24.90;;;;;;;6.70;99.49;100279.63;5062755;28;20099;-67
2021/11/19 01:17:23;;;;;;;64.18;22.67;;;;;;;6.71;99.59;100276.19;5063201;28;20055;-67
2021/11/19 01:19:58;;;;;;;67.05;24.27;;;;;;;6.74;98.95;100270.97;5062816;28;20212;-67
2021/11/19 01:22:28;;;;;;;78.82;26.00;;;;;;;6.72;99.25;100283.16;5062934;28;20037;-67
2021/11/19 01:24:54;;;;;;;74.28;24.65;;;;;;;6.75;99.08;100287.56;5063141;28;20026;-67
2021/11/19 01:27:21;;;;;;;71.07;26.23;;;;;;;6.74;99.51;100281.44;5063050;28;20019;-67
2021/11/19 01:29:47;;;;;;;72.68;25.42;;;;;;;6.72;99.43;100291.00;5062882;28;20028;-67
2021/11/19 01:32:16;;;;;;;69.40;25.48;;;;;;;6.72;99.05;100284.03;5062972;28;20044;-67
2021/11/19 01:34:41;;;;;;;72.18;25.52;;;;;;;6.77;99.18;100291.13;5062869;28;20024;-67
2021/11/19 01:37:09;;;;;;;68.15;25.60;;;;;;;6.79;99.06;100292.00;5062682;28;20024;-67
2021/11/19 01:39:36;;;;;;;83.15;27.48;;;;;;;6.77;99.33;100284.13;5064098;28;20021;-67
2021/11/19 01:42:11;;;;;;;74.60;27.08;;;;;;;6.76;99.12;100279.75;5067119;28;20047;-67
2021/11/19 01:44:59;;;;;;;76.60;26.45;;;;;;;6.75;99.03;100287.56;5066871;28;20032;-67
2021/11/19 01:47:25;;;;;;;78.13;27.40;;;;;;;6.76;99.05;100289.34;5064753;28;20013;-67
2021/11/19 01:49:51;;;;;;;76.35;26.35;;;;;;;6.81;99.16;100286.00;5065695;28;20017;-67
2021/11/19 01:52:21;;;;;;;83.50;28.00;;;;;;;6.79;99.31;100286.78;5065569;28;20040;-67
2021/11/19 01:54:55;;;;;;;70.70;25.77;;;;;;;6.79;98.96;100279.81;5065606;28;20028;-67
2021/11/19 01:57:27;;;;;;;71.25;26.15;;;;;;;6.78;99.42;100272.84;5065625;28;20023;-67
2021/11/19 01:59:54;;;;;;;84.15;27.13;;;;;;;6.78;99.04;100277.19;5058582;28;20096;-67
2021/11/19 02:02:36;;;;;;;79.93;27.65;;;;;;;6.77;99.00;100278.91;5065337;28;20032;-67
2021/11/19 02:05:25;;;;;;;80.13;28.17;;;;;;;6.72;99.34;100283.16;5059361;28;20075;-67
2021/11/19 02:08:00;;;;;;;66.97;27.20;;;;;;;6.71;99.79;100281.41;5058691;28;20016;-67
2021/11/19 02:10:25;;;;;;;74.93;28.73;;;;;;;6.71;99.67;100286.66;5065426;28;20194;-67
2021/11/19 02:12:59;;;;;;;89.82;29.27;;;;;;;6.76;99.27;100285.00;5064603;28;20021;-67
2021/11/19 02:15:36;;;;;;;72.50;27.13;;;;;;;6.75;99.42;100277.09;5065209;28;20045;-67
2021/11/19 02:18:09;;;;;;;77.40;29.42;;;;;;;6.67;99.40;100271.69;5064835;28;20111;-67
2021/11/19 02:20:38;;;;;;;77.45;28.00;;;;;;;6.67;99.38;100269.09;5064911;28;20194;-67
2021/11/19 02:23:11;;;;;;;88.03;30.08;;;;;;;6.56;100.00;100262.75;5065134;28;20025;-67
2021/11/19 02:25:49;;;;;;;74.22;28.73;;;;;;;6.54;100.00;100251.34;5064514;28;20369;-67
2021/11/19 02:28:20;;;;;;;74.15;28.30;;;;;;;6.61;100.00;100248.00;5065362;28;20013;-67
2021/11/19 02:31:12;;;;;;;93.40;28.30;;;;;;;6.69;99.97;100246.47;5064842;28;20075;-67
2021/11/19 02:33:41;;;;;;;66.60;27.48;;;;;;;6.66;99.79;100246.41;5064678;28;20048;-67
2021/11/19 02:36:11;;;;;;;69.03;26.65;;;;;;;6.65;100.00;100255.09;5064956;28;20028;-67
2021/11/19 02:39:00;;;;;;;82.18;29.65;;;;;;;6.61;100.00;100253.25;5064206;28;20017;-67
2021/11/19 02:41:27;;;;;;;75.18;28.15;;;;;;;6.64;100.00;100248.97;5063728;28;20025;-67
2021/11/19 02:43:57;;;;;;;74.65;28.45;;;;;;;6.62;100.00;100247.19;5064543;28;20080;-67
2021/11/19 02:46:31;;;;;;;75.75;28.52;;;;;;;6.60;100.00;100246.25;5064839;28;20039;-67
2021/11/19 02:48:56;;;;;;;66.60;26.90;;;;;;;6.50;100.00;100249.53;5064374;28;20041;-67
2021/11/19 02:51:24;;;;;;;75.53;30.23;;;;;;;6.45;100.00;100259.88;5063128;28;20335;-67
2021/11/19 02:53:50;;;;;;;75.00;27.45;;;;;;;6.50;100.00;100260.00;5064473;28;20017;-67
2021/11/19 02:56:18;;;;;;;63.70;26.05;;;;;;;6.51;100.00;100256.50;5064557;28;20028;-67
2021/11/19 02:58:47;;;;;;;72.32;27.58;;;;;;;6.59;100.00;100257.59;5064211;28;20091;-67
2021/11/19 03:01:53;;;;;;;63.83;25.13;;;;;;;6.65;100.00;100255.09;5064471;28;20025;-67
2021/11/19 03:04:32;;;;;;;54.97;23.08;;;;;;;6.67;100.00;100255.16;4967315;28;20031;-67
2021/11/19 03:06:59;;;;;;;60.85;23.77;;;;;;;6.61;100.00;100253.25;4980955;28;20061;-67
2021/11/19 03:09:34;;;;;;;65.60;22.27;;;;;;;6.65;100.00;100249.88;4971930;28;20042;-67
2021/11/19 03:12:02;;;;;;;47.63;20.98;;;;;;;6.61;100.00;100248.00;4966849;28;20320;-67
2021/11/19 03:14:27;;;;;;;52.67;22.08;;;;;;;6.66;100.00;100246.41;4979629;28;20038;-67
2021/11/19 03:16:54;;;;;;;54.70;20.48;;;;;;;6.70;100.00;100243.00;4969998;28;20023;-67
2021/11/19 03:19:20;;;;;;;59.42;20.63;;;;;;;6.67;100.00;100242.91;4980564;28;20027;-67
2021/11/19 03:21:46;;;;;;;52.75;20.15;;;;;;;6.67;100.00;100242.91;4971951;28;20345;-67
2021/11/19 03:24:13;;;;;;;51.45;19.48;;;;;;;6.72;100.00;100242.16;4967676;28;20079;-67
2021/11/19 03:26:40;;;;;;;55.53;20.08;;;;;;;6.70;100.00;100237.75;4975081;28;20229;-67
2021/11/19 03:29:08;;;;;;;44.50;18.70;;;;;;;6.71;100.00;100243.88;4967553;28;20146;-67
2021/11/19 03:31:34;;;;;;;46.70;19.40;;;;;;;6.75;100.00;100246.59;4980727;28;20115;-67
2021/11/19 03:34:01;;;;;;;57.22;19.67;;;;;;;6.75;100.00;100246.59;4984682;28;20039;-67
2021/11/19 03:36:28;;;;;;;48.03;18.42;;;;;;;6.75;100.00;100249.22;5062937;28;20028;-67
2021/11/19 03:38:55;;;;;;;46.47;20.77;;;;;;;6.79;100.00;100245.81;5064524;28;20020;-67
2021/11/19 03:41:25;;;;;;;55.83;19.15;;;;;;;6.74;100.00;100255.28;5064599;28;20031;-67
2021/11/19 03:43:56;;;;;;;52.05;20.02;;;;;;;6.78;100.00;100257.13;5064888;28;20017;-67
2021/11/19 03:46:31;;;;;;;48.42;20.20;;;;;;;6.84;100.00;100261.59;5064474;28;20024;-67
2021/11/19 03:48:57;;;;;;;48.85;18.45;;;;;;;6.84;100.00;100265.13;5056350;28;20020;-67
2021/11/19 03:51:30;;;;;;;52.05;20.25;;;;;;;6.80;100.00;100258.03;5064579;28;20216;-67
2021/11/19 03:53:56;;;;;;;42.83;17.98;;;;;;;6.89;99.67;100270.47;5064095;28;20021;-67
2021/11/19 03:56:22;;;;;;;53.88;19.48;;;;;;;6.87;100.00;100267.81;5064205;28;20028;-67
2021/11/19 03:58:48;;;;;;;49.38;18.90;;;;;;;6.88;99.80;100266.06;5064156;28;20028;-67
2021/11/19 04:01:21;;;;;;;56.08;21.30;;;;;;;6.83;99.67;100265.94;5055195;28;20052;-67
2021/11/19 04:03:47;;;;;;;64.45;18.77;;;;;;;6.83;99.88;100265.94;5063400;28;20074;-67
2021/11/19 04:06:14;;;;;;;54.63;19.60;;;;;;;6.84;100.00;100267.75;5064105;28;20059;-67
2021/11/19 04:08:39;;;;;;;49.50;19.90;;;;;;;6.82;100.00;100269.44;5064433;28;20312;-67
2021/11/19 04:11:06;;;;;;;56.60;21.05;;;;;;;6.83;100.00;100275.56;5064267;28;20041;-67
2021/11/19 04:13:32;;;;;;;54.53;19.63;;;;;;;6.86;99.80;100278.25;5063795;28;20217;-67
2021/11/19 04:16:00;;;;;;;60.85;21.05;;;;;;;6.73;100.00;100274.47;5063725;28;20063;-67
2021/11/19 04:18:27;;;;;;;62.08;20.73;;;;;;;6.82;99.99;100264.19;5063876;28;20020;-67
2021/11/19 04:20:54;;;;;;;53.20;20.13;;;;;;;6.80;99.96;100265.88;5062728;28;20027;-67
2021/11/19 04:23:20;;;;;;;54.13;20.40;;;;;;;6.77;100.00;100265.81;5063036;28;20029;-67
2021/11/19 04:25:46;;;;;;;57.00;20.17;;;;;;;6.81;99.91;100265.06;5063808;28;20070;-67
2021/11/19 04:28:12;;;;;;;56.95;20.88;;;;;;;6.79;100.00;100269.34;5063593;28;20036;-67
2021/11/19 04:30:40;;;;;;;52.05;18.85;;;;;;;6.76;100.00;100269.28;5063623;28;20335;-67
2021/11/19 04:33:07;;;;;;;58.85;19.13;;;;;;;6.70;100.00;100271.78;5063676;28;20031;-67
2021/11/19 04:35:33;;;;;;;52.20;19.25;;;;;;;6.71;100.00;100265.72;5063910;28;20020;-67
2021/11/19 04:38:00;;;;;;;70.00;20.85;;;;;;;6.75;100.00;100271.88;5063540;28;20025;-67
2021/11/19 04:40:28;;;;;;;65.53;21.15;;;;;;;6.71;100.00;100270.94;5063590;28;20016;-67
2021/11/19 04:42:54;;;;;;;47.50;19.67;;;;;;;6.78;100.00;100262.38;5063427;28;20029;-67
2021/11/19 04:45:23;;;;;;;57.28;19.42;;;;;;;6.76;100.00;100258.81;5055052;28;20028;-67
2021/11/19 04:47:49;;;;;;;59.38;20.52;;;;;;;6.71;100.00;100256.97;5063453;28;20032;-67
2021/11/19 04:50:17;;;;;;;55.33;21.08;;;;;;;6.67;100.00;100250.78;5063320;28;20035;-67
2021/11/19 04:52:43;;;;;;;49.08;19.52;;;;;;;6.70;100.00;100253.44;5063379;28;20050;-67
2021/11/19 04:55:11;;;;;;;64.90;19.25;;;;;;;6.69;100.00;100254.31;5063102;28;20059;-67
2021/11/19 04:57:36;;;;;;;59.13;20.77;;;;;;;6.70;100.00;100253.44;5054472;28;20021;-67
2021/11/19 05:00:07;;;;;;;52.80;19.65;;;;;;;6.72;100.00;100251.75;5063455;28;20024;-67
2021/11/19 05:02:32;;;;;;;56.20;21.17;;;;;;;6.72;100.00;100246.53;5062599;28;20038;-67
2021/11/19 05:04:58;;;;;;;47.00;20.02;;;;;;;6.73;100.00;100248.28;5062158;28;20337;-67
2021/11/19 05:07:23;;;;;;;45.50;18.40;;;;;;;6.78;100.00;100244.06;5062153;28;20027;-67
2021/11/19 05:09:49;;;;;;;47.92;18.98;;;;;;;6.80;100.00;100251.94;5062334;28;20051;-67
2021/11/19 05:12:21;;;;;;;51.63;20.10;;;;;;;6.82;100.00;100243.25;5062151;28;20134;-67
2021/11/19 05:14:49;;;;;;;50.78;18.45;;;;;;;6.76;100.00;100250.09;5063720;28;20029;-67
2021/11/19 05:17:15;;;;;;;59.30;20.25;;;;;;;6.75;100.00;100241.38;5066075;28;20025;-67
2021/11/19 05:19:40;;;;;;;42.38;17.58;;;;;;;6.76;100.00;100240.50;5066147;28;20095;-67
2021/11/19 05:22:07;;;;;;;56.22;19.17;;;;;;;6.75;100.00;100245.72;5066553;28;20059;-67
2021/11/19 05:24:33;;;;;;;53.10;18.90;;;;;;;6.80;100.00;100242.31;5066273;28;20108;-67
2021/11/19 05:26:59;;;;;;;58.42;19.88;;;;;;;6.74;100.00;100244.81;5066069;28;20063;-67
2021/11/19 05:29:24;;;;;;;61.13;19.63;;;;;;;6.73;100.00;100240.44;5065910;28;20084;-67
2021/11/19 05:31:51;;;;;;;60.08;20.00;;;;;;;6.79;100.00;100245.81;5065523;28;20220;-67
2021/11/19 05:34:17;;;;;;;53.17;19.73;;;;;;;6.75;100.00;100236.13;5065732;28;20313;-67
2021/11/19 05:36:44;;;;;;;56.55;18.77;;;;;;;6.74;100.00;100239.56;5066036;28;20055;-67
2021/11/19 05:39:09;;;;;;;46.92;18.02;;;;;;;6.79;100.00;100253.66;5066738;28;20021;-67
2021/11/19 05:41:35;;;;;;;58.72;20.30;;;;;;;6.71;100.00;100244.78;5067125;28;20275;-67
2021/11/19 05:44:01;;;;;;;42.83;17.75;;;;;;;6.74;100.00;100251.81;5067250;28;20028;-67
2021/11/19 05:46:28;;;;;;;50.42;18.17;;;;;;;6.76;100.00;100245.75;5067232;28;20025;-67
2021/11/19 05:48:56;;;;;;;43.85;17.88;;;;;;;6.75;100.00;100243.97;5067203;28;20044;-67
2021/11/19 05:51:24;;;;;;;52.75;19.15;;;;;;;6.75;100.00;100245.72;5067142;28;20029;-67
2021/11/19 05:53:51;;;;;;;49.05;18.55;;;;;;;6.72;100.00;100257.00;5067060;28;20051;-67
2021/11/19 05:56:17;;;;;;;53.22;18.05;;;;;;;6.74;100.00;100254.41;5066993;28;20356;-67
2021/11/19 05:58:42;;;;;;;54.17;17.98;;;;;;;6.71;100.00;100255.25;5066905;28;20324;-67
2021/11/19 06:01:13;;;;;;;59.90;19.55;;;;;;;6.71;100.00;100263.09;5066965;28;20024;-67
2021/11/19 06:03:40;;;;;;;52.40;18.52;;;;;;;6.71;100.00;100260.47;5067139;28;20096;-67
2021/11/19 06:06:09;;;;;;;60.88;19.35;;;;;;;6.71;100.00;100268.31;5066855;28;20024;-67
2021/11/19 06:08:36;;;;;;;56.08;19.50;;;;;;;6.73;100.00;100269.22;5067063;28;20087;-67
2021/11/19 06:11:21;;;;;;;47.92;17.00;;;;;;;6.75;100.00;100262.31;5066762;28;20021;-67
2021/11/19 06:13:55;;;;;;;59.55;18.92;;;;;;;6.68;100.00;100265.63;5066747;28;20248;-67
2021/11/19 06:16:25;;;;;;;46.75;18.42;;;;;;;6.73;100.00;100264.00;5066597;28;20045;-67
2021/11/19 06:18:56;;;;;;;63.50;17.42;;;;;;;6.75;100.00;100267.53;5066563;28;20124;-67
2021/11/19 06:21:30;;;;;;;47.53;17.33;;;;;;;6.78;100.00;100265.00;5066703;28;20267;-67
2021/11/19 06:23:58;;;;;;;49.58;18.55;;;;;;;6.78;100.00;100267.59;5066611;28;20021;-67
2021/11/19 06:26:26;;;;;;;50.60;18.63;;;;;;;6.77;100.00;100263.19;5066299;28;20056;-67
2021/11/19 06:28:54;;;;;;;54.85;17.75;;;;;;;6.77;100.00;100275.41;5066434;28;20025;-67
2021/11/19 06:31:22;;;;;;;41.58;17.08;;;;;;;6.80;100.00;100275.50;5066376;28;20032;-67
2021/11/19 06:33:48;;;;;;;49.13;17.45;;;;;;;6.77;100.00;100281.50;5066330;28;20028;-67
2021/11/19 06:36:15;;;;;;;44.20;18.52;;;;;;;6.78;100.00;100283.31;5064784;28;20029;-67
2021/11/19 06:38:43;;;;;;;48.30;17.08;;;;;;;6.75;100.00;100292.81;5065790;28;20028;-67
2021/11/19 06:41:09;;;;;;;48.80;17.55;;;;;;;6.79;100.00;100290.28;5066192;28;20020;-67
2021/11/19 06:43:35;;;;;;;47.00;18.33;;;;;;;6.77;100.00;100291.97;5066162;28;20320;-67
2021/11/19 06:46:01;;;;;;;50.67;18.77;;;;;;;6.76;100.00;100295.47;5066133;28;20057;-67
2021/11/19 06:48:27;;;;;;;47.72;18.48;;;;;;;6.76;100.00;100300.69;5066075;28;20021;-67
2021/11/19 06:50:53;;;;;;;61.35;20.33;;;;;;;6.75;100.00;100304.16;5066014;28;20027;-67
2021/11/19 06:53:20;;;;;;;56.13;19.35;;;;;;;6.76;100.00;100311.16;5065994;28;20335;-67
2021/11/19 06:55:46;;;;;;;49.08;18.52;;;;;;;6.76;100.00;100300.69;5066325;28;20313;-67
2021/11/19 06:58:12;;;;;;;49.97;18.63;;;;;;;6.79;100.00;100303.38;5065828;28;20027;-67
2021/11/19 07:00:40;;;;;;;55.13;19.25;;;;;;;6.76;100.00;100310.25;5065846;28;20027;-67
2021/11/19 07:03:07;;;;;;;46.33;17.80;;;;;;;6.76;100.00;100311.16;5066001;28;20047;-67
2021/11/19 07:05:32;;;;;;;47.67;20.27;;;;;;;6.78;100.00;100319.94;5065762;28;20047;-67
2021/11/19 07:08:01;;;;;;;53.90;18.52;;;;;;;6.81;100.00;100314.78;5065965;28;20048;-67
2021/11/19 07:10:27;;;;;;;52.97;19.02;;;;;;;6.80;100.00;100312.13;5065642;28;20024;-67
2021/11/19 07:12:53;;;;;;;49.85;18.48;;;;;;;6.79;100.00;100311.22;5065610;28;20224;-67
2021/11/19 07:15:19;;;;;;;46.03;18.77;;;;;;;6.81;100.00;100309.53;5065463;28;20048;-67
2021/11/19 07:17:46;;;;;;;54.78;19.75;;;;;;;6.86;100.00;100307.03;5065429;28;20032;-67
2021/11/19 07:20:15;;;;;;;44.15;17.52;;;;;;;6.87;100.00;100311.41;5065721;28;20335;-67
2021/11/19 07:22:41;;;;;;;50.42;18.35;;;;;;;6.87;100.00;100307.06;5065410;28;20342;-67
2021/11/19 07:25:10;;;;;;;57.40;19.45;;;;;;;6.75;100.00;100319.88;5065394;28;20028;-67
2021/11/19 07:27:35;;;;;;;45.38;17.90;;;;;;;6.80;100.00;100318.22;5065378;28;20025;-67
2021/11/19 07:30:03;;;;;;;55.35;19.35;;;;;;;6.86;100.00;100300.03;5065266;28;20067;-67
2021/11/19 07:32:28;;;;;;;45.35;18.80;;;;;;;6.93;100.00;100315.03;5063788;28;20037;-67
2021/11/19 07:34:53;;;;;;;51.25;18.95;;;;;;;6.89;100.00;100317.56;5064504;28;20046;-67
2021/11/19 07:37:23;;;;;;;45.28;19.05;;;;;;;6.93;100.00;100316.78;5056318;28;20314;-67
2021/11/19 07:39:50;;;;;;;55.28;18.77;;;;;;;6.92;100.00;100321.13;5047200;28;20067;-67
2021/11/19 07:42:15;;;;;;;50.42;18.75;;;;;;;6.89;100.00;100318.44;5064597;28;20025;-67
2021/11/19 07:44:41;;;;;;;41.65;17.65;;;;;;;6.92;100.00;100325.47;5064977;28;20370;-67
2021/11/19 07:47:06;;;;;;;45.40;17.52;;;;;;;6.95;100.00;100323.81;5064939;28;20029;-67
2021/11/19 07:49:32;;;;;;;43.67;15.68;;;;;;;6.97;100.00;100326.47;5064887;28;20063;-67
2021/11/19 07:51:57;;;;;;;50.00;17.92;;;;;;;7.03;100.00;100324.88;5064860;28;20194;-67
2021/11/19 07:54:23;;;;;;;41.92;17.75;;;;;;;7.00;100.00;100332.66;5064712;28;20338;-67
2021/11/19 07:56:49;;;;;;;50.40;16.73;;;;;;;7.01;100.00;100339.66;5064753;28;20091;-67
2021/11/19 07:59:20;;;;;;;45.05;16.77;;;;;;;7.05;100.00;100336.25;5064719;28;20317;-67
2021/11/19 08:01:46;;;;;;;45.43;16.80;;;;;;;7.09;100.00;100348.53;5068249;28;20367;-67
2021/11/19 08:04:12;;;;;;;42.97;17.60;;;;;;;7.09;100.00;100343.28;5057006;28;20258;-67
2021/11/19 08:06:39;;;;;;;47.78;19.40;;;;;;;7.11;100.00;100336.38;5062294;28;20209;-67
2021/11/19 08:09:05;;;;;;;49.03;18.02;;;;;;;7.14;100.00;100336.44;5053875;28;20079;-67
2021/11/19 08:11:30;;;;;;;46.63;16.83;;;;;;;7.16;100.00;100331.22;5055212;28;20025;-67
2021/11/19 08:13:56;;;;;;;45.72;17.20;;;;;;;7.16;100.00;100339.09;5054257;28;20020;-67
2021/11/19 08:16:22;;;;;;;46.58;16.92;;;;;;;7.15;100.00;100338.19;5054213;28;20072;-67
2021/11/19 08:18:54;;;;;;;41.95;17.23;;;;;;;7.14;100.00;100336.44;5053151;28;20092;-67
2021/11/19 08:21:20;;;;;;;42.83;17.45;;;;;;;7.22;100.00;100334.00;5054044;28;20025;-67
2021/11/19 08:23:51;;;;;;;40.80;17.48;;;;;;;7.28;100.00;100334.97;5054791;28;20216;-67
2021/11/19 08:26:25;;;;;;;41.17;16.23;;;;;;;7.31;99.95;100329.81;5052364;28;20021;-67
2021/11/19 08:28:51;;;;;;;39.72;15.52;;;;;;;7.33;100.00;100332.44;5044539;28;20023;-67
2021/11/19 08:31:19;;;;;;;42.17;17.65;;;;;;;7.33;100.00;100338.59;5052211;28;20320;-67
2021/11/19 08:33:45;;;;;;;43.35;17.13;;;;;;;7.31;100.00;100334.19;5066095;28;20020;-67
2021/11/19 08:36:12;;;;;;;47.33;16.80;;;;;;;7.27;100.00;100338.47;5057464;28;20031;-67
2021/11/19 08:38:41;;;;;;;43.38;18.30;;;;;;;7.35;100.00;100336.91;5055510;28;20309;-67
2021/11/19 08:41:08;;;;;;;44.42;16.95;;;;;;;7.35;99.92;100341.25;5055673;28;20093;-67
2021/11/19 08:43:36;;;;;;;38.92;16.00;;;;;;;7.37;100.00;100345.66;5053044;28;20084;-67
2021/11/19 08:46:04;;;;;;;41.97;15.82;;;;;;;7.41;100.00;100352.75;5056747;28;20027;-67
2021/11/19 08:48:31;;;;;;;34.80;15.90;;;;;;;7.44;100.00;100357.16;5055237;28;20052;-67
2021/11/19 08:50:59;;;;;;;48.17;18.08;;;;;;;7.48;100.00;100358.97;5058871;28;20040;-67
2021/11/19 08:53:24;;;;;;;38.83;16.17;;;;;;;7.46;100.00;100348.47;5054071;28;20083;-67
2021/11/19 08:55:54;;;;;;;40.83;17.08;;;;;;;7.48;99.83;100352.00;5053757;28;20029;-67
2021/11/19 08:58:21;;;;;;;40.40;14.93;;;;;;;7.45;100.00;100346.69;5049255;28;20405;-67
2021/11/19 09:00:49;;;;;;;46.05;18.80;;;;;;;7.52;100.00;100348.59;5043853;28;20033;-67
2021/11/19 09:03:14;;;;;;;46.30;17.17;;;;;;;7.53;100.00;100352.97;5043786;28;20335;-67
2021/11/19 09:05:43;;;;;;;35.90;16.98;;;;;;;7.59;100.00;100352.22;5043802;28;20049;-67
2021/11/19 09:08:12;;;;;;;47.22;16.77;;;;;;;7.63;100.00;100349.66;5044054;28;20021;-67
2021/11/19 09:10:39;;;;;;;40.33;17.00;;;;;;;7.69;99.80;100339.31;5048288;28;20036;-67
2021/11/19 09:13:05;;;;;;;43.28;17.67;;;;;;;7.72;99.58;100343.75;5063692;28;20025;-67
2021/11/19 09:15:32;;;;;;;45.33;17.42;;;;;;;7.75;100.00;100339.44;5060380;28;20037;-67
2021/11/19 09:18:07;;;;;;;46.28;16.00;;;;;;;7.77;100.00;100337.72;5063623;28;20052;-67
2021/11/19 09:20:54;;;;;;;51.20;17.50;;;;;;;7.79;99.57;100333.38;5063870;28;20303;-67
2021/11/19 09:23:33;;;;;;;36.33;15.95;;;;;;;7.80;99.54;100327.31;5057645;28;20021;-67
2021/11/19 09:26:06;;;;;;;44.85;17.33;;;;;;;7.85;99.70;100330.88;5063616;28;20092;-67
2021/11/19 09:28:36;;;;;;;58.38;16.73;;;;;;;7.89;99.41;100337.97;5057616;28;20045;-67
2021/11/19 09:31:05;;;;;;;41.00;16.50;;;;;;;7.82;98.80;100340.44;5053098;28;20349;-67
2021/11/19 09:33:31;;;;;;;46.75;16.92;;;;;;;7.84;98.87;100350.09;5057648;28;20027;-67
2021/11/19 09:35:57;;;;;;;37.40;15.00;;;;;;;7.79;98.88;100351.72;5054615;28;20092;-67
2021/11/19 09:38:24;;;;;;;54.00;17.63;;;;;;;7.76;99.69;100356.94;5053960;28;20029;-67
2021/11/19 09:41:03;;;;;;;49.63;16.52;;;;;;;7.80;100.00;100358.75;5058299;28;20025;-67
2021/11/19 09:43:46;;;;;;;44.38;17.27;;;;;;;7.86;100.00;100364.13;5047469;28;20033;-67
2021/11/19 09:46:45;;;;;;;41.60;17.60;;;;;;;7.82;99.52;100357.03;5044048;28;20049;-67
2021/11/19 09:49:33;;;;;;;42.53;18.33;;;;;;;7.86;99.73;100364.13;5032429;28;20333;-67
2021/11/19 09:52:00;;;;;;;44.60;18.58;;;;;;;7.86;99.67;100369.38;5043401;28;20025;-67
2021/11/19 09:54:44;;;;;;;49.70;19.90;;;;;;;7.86;99.34;100369.38;5043368;28;20029;-67
2021/11/19 09:57:41;;;;;;;44.60;19.63;;;;;;;7.83;99.56;100364.06;5043392;28;20071;-67
2021/11/19 10:00:20;;;;;;;45.63;18.45;;;;;;;7.92;99.02;100360.72;5043652;28;20030;-67
2021/11/19 10:03:15;;;;;;;45.97;19.38;;;;;;;7.98;98.96;100363.47;5046973;28;20029;-67
2021/11/19 10:05:50;;;;;;;38.17;18.75;;;;;;;8.04;99.34;100364.44;5046992;28;20029;-67
2021/11/19 10:08:44;;;;;;;43.03;18.52;;;;;;;8.06;99.82;100360.13;5047200;28;20013;-67
2021/11/19 10:11:34;;;;;;;47.83;18.80;;;;;;;8.03;99.27;100354.81;5046843;28;20049;-67
2021/11/19 10:14:44;;;;;;;47.42;17.60;;;;;;;8.15;99.91;100352.41;5047079;28;20244;-67
2021/11/19 10:17:28;;;;;;;44.80;18.23;;;;;;;8.24;99.97;100357.84;4986066;28;20334;-67
2021/11/19 10:20:17;;;;;;;46.20;17.88;;;;;;;8.26;99.32;100353.50;5056870;28;20039;-67
2021/11/19 10:22:52;;;;;;;45.30;19.17;;;;;;;8.30;99.42;100355.34;5081170;28;20059;-67
2021/11/19 10:25:37;;;;;;;47.40;20.70;;;;;;;8.32;99.14;100356.22;5068626;28;20028;-67
2021/11/19 10:28:09;;;;;;;38.70;18.40;;;;;;;8.34;98.67;100354.53;5072255;28;20226;-67
2021/11/19 10:30:44;;;;;;;44.28;19.40;;;;;;;8.33;98.80;100347.50;5068826;28;20025;-67
2021/11/19 10:33:37;;;;;;;45.15;19.75;;;;;;;8.38;98.39;100351.09;5056862;28;20221;-67
2021/11/19 10:36:17;;;;;;;36.78;15.77;;;;;;;8.46;98.78;100354.75;5057049;28;20312;-67
2021/11/19 10:38:51;;;;;;;39.15;17.95;;;;;;;8.51;98.25;100347.81;5058312;28;20032;-67
2021/11/19 10:41:25;;;;;;;37.78;17.88;;;;;;;8.57;98.26;100342.66;5059203;28;20358;-67
2021/11/19 10:44:25;;;;;;;36.15;16.80;;;;;;;8.59;98.41;100342.69;5066209;28;20378;-67
2021/11/19 10:46:50;;;;;;;36.72;17.65;;;;;;;8.67;98.13;100344.56;5046114;28;20030;-67
2021/11/19 10:49:33;;;;;;;38.75;17.80;;;;;;;8.69;97.71;100340.22;5046099;28;20056;-67
2021/11/19 10:52:23;;;;;;;38.92;17.98;;;;;;;8.68;97.73;100335.81;5046088;28;20033;-67
2021/11/19 10:55:19;;;;;;;38.35;18.60;;;;;;;8.77;97.96;100335.97;5046152;28;20025;-67
2021/11/19 10:58:22;;;;;;;32.05;16.33;;;;;;;8.90;97.26;100336.16;5046045;28;20026;-67
2021/11/19 11:00:53;;;;;;;;;;;;;;;8.90;97.04;100325.63;5046400;28;20089;-67
2021/11/19 11:03:23;;;;;;;35.78;15.95;;;;;;;9.02;97.53;100326.72;5045819;28;19933;-67
2021/11/19 11:06:19;;;;;;;39.35;18.13;;;;;;;9.08;97.31;100331.16;5055946;28;20024;-67
2021/11/19 11:08:47;;;;;;;40.28;18.13;;;;;;;9.06;97.10;100328.50;5053195;28;20037;-67
2021/11/19 11:11:37;;;;;;;33.72;16.67;;;;;;;9.12;97.13;100322.44;5065580;28;20024;-67
2021/11/19 11:14:09;;;;;;;36.80;16.98;;;;;;;9.13;96.28;100321.56;5065279;28;20102;-67
2021/11/19 11:16:44;;;;;;;38.20;16.87;;;;;;;9.14;96.87;100310.22;5065642;28;20044;-67
2021/11/19 11:19:09;;;;;;;39.10;16.88;;;;;;;9.24;96.93;100309.47;5065399;28;20300;-67
2021/11/19 11:21:38;;;;;;;35.60;16.33;;;;;;;9.21;96.93;100307.66;5065450;28;20032;-67
2021/11/19 11:24:13;;;;;;;36.97;16.70;;;;;;;9.18;96.22;100297.16;5065672;28;20025;-67
2021/11/19 11:26:46;;;;;;;37.25;18.25;;;;;;;9.29;96.24;100297.25;5065356;28;20052;-67